createdAt,value
2019-01-26T00:00:50.349Z,51.53
2019-01-26T00:03:18.290Z,52.57
2019-01-26T00:05:46.328Z,51.50
2019-01-26T00:08:14.301Z,50.33
2019-01-26T00:10:42.338Z,54.13
2019-01-26T00:13:10.440Z,50.73
2019-01-26T00:15:38.433Z,59.00
2019-01-26T00:18:06.348Z,52.23
2019-01-26T00:20:46.174Z,55.67
2019-01-26T00:23:04.134Z,56.93
2019-01-26T00:25:32.119Z,59.43
2019-01-26T00:28:07.443Z,58.57
2019-01-26T00:30:35.404Z,55.87
2019-01-26T00:36:13.943Z,55.17
2019-01-26T00:38:41.988Z,58.33
2019-01-26T00:44:04.512Z,56.50
2019-01-26T00:46:32.507Z,58.00
2019-01-26T00:49:00.495Z,60.93
2019-01-26T00:54:22.384Z,66.80
2019-01-26T00:56:50.414Z,61.47
2019-01-26T00:59:18.371Z,62.07
2019-01-26T01:04:53.803Z,66.40
2019-01-26T01:07:21.793Z,72.40
2019-01-26T01:12:57.290Z,68.80
2019-01-26T01:15:25.254Z,61.37
2019-01-26T01:17:53.231Z,64.83
2019-01-26T01:23:28.741Z,64.67
2019-01-26T01:29:04.217Z,73.63
2019-01-26T01:31:32.262Z,65.87
2019-01-26T01:34:00.208Z,65.40
2019-01-26T01:36:28.206Z,64.60
2019-01-26T01:41:50.062Z,63.40
2019-01-26T01:44:17.973Z,68.30
2019-01-26T01:46:45.988Z,64.33
2019-01-26T01:52:21.422Z,61.67
2019-01-26T01:57:56.966Z,60.67
2019-01-26T02:03:32.649Z,64.03
2019-01-26T02:09:08.880Z,65.47
2019-01-26T02:11:36.901Z,68.20
2019-01-26T02:14:04.896Z,65.97
2019-01-26T02:16:32.874Z,68.90
2019-01-26T02:21:55.178Z,69.20
2019-01-26T02:24:23.297Z,65.17
2019-01-26T02:26:51.345Z,71.10
2019-01-26T02:32:12.964Z,65.37
2019-01-26T02:34:40.988Z,70.77
2019-01-26T02:46:04.737Z,71.77
2019-01-26T02:54:20.740Z,71.97
2019-01-26T02:56:48.936Z,71.30
2019-01-26T02:59:16.926Z,69.50
2019-01-26T03:01:44.935Z,71.77
2019-01-26T03:04:12.874Z,71.73
2019-01-26T03:09:34.688Z,70.27
2019-01-26T03:12:02.679Z,75.37
2019-01-26T03:14:30.676Z,74.40
2019-01-26T03:17:05.607Z,74.23
2019-01-26T03:25:29.996Z,65.77
2019-01-26T03:27:58.006Z,73.90
2019-01-26T03:33:33.504Z,71.53
2019-01-26T03:36:01.476Z,69.43
2019-01-26T03:41:23.164Z,75.97
2019-01-26T03:46:44.672Z,74.93
2019-01-26T03:49:12.716Z,69.90
2019-01-26T03:57:29.238Z,71.83
2019-01-26T04:02:51.858Z,74.03
2019-01-26T04:05:19.792Z,74.83
2019-01-26T04:07:47.791Z,70.60
2019-01-26T04:13:10.326Z,74.33
2019-01-26T04:15:38.325Z,80.90
2019-01-26T04:18:06.240Z,73.27
2019-01-26T04:23:28.534Z,70.43
2019-01-26T04:25:56.437Z,71.33
2019-01-26T04:28:24.417Z,67.93
2019-01-26T04:33:41.018Z,65.23
2019-01-26T04:36:08.961Z,63.53
2019-01-26T04:38:37.017Z,66.53
2019-01-26T04:44:12.586Z,70.23
2019-01-26T04:49:48.304Z,57.30
2019-01-26T04:52:16.242Z,66.23
2019-01-26T04:54:44.205Z,63.97
2019-01-26T04:57:12.269Z,65.67
2019-01-26T05:02:34.600Z,58.47
2019-01-26T05:05:02.542Z,67.17
2019-01-26T05:10:24.185Z,58.57
2019-01-26T05:13:06.227Z,53.63
2019-01-26T05:18:29.305Z,59.73
2019-01-26T05:24:05.913Z,54.03
2019-01-26T05:29:41.992Z,46.27
2019-01-26T05:38:11.949Z,53.93
2019-01-26T05:40:40.040Z,53.93
2019-01-26T05:43:08.000Z,53.53
2019-01-26T05:48:30.375Z,48.63
2019-01-26T05:50:58.444Z,52.07
2019-01-26T05:56:20.728Z,51.53
2019-01-26T05:58:48.663Z,47.63
2019-01-26T06:01:16.635Z,45.53
2019-01-26T06:03:44.666Z,44.67
2019-01-26T06:06:12.624Z,42.70
2019-01-26T06:08:40.652Z,50.33
2019-01-26T06:14:03.118Z,45.20
2019-01-26T06:19:25.741Z,41.53
2019-01-26T06:21:53.829Z,50.87
2019-01-26T06:24:21.912Z,41.77
2019-01-26T06:26:50.039Z,39.83
2019-01-26T06:29:18.402Z,42.43
2019-01-26T06:31:46.557Z,46.57
2019-01-26T06:34:14.545Z,41.93
2019-01-26T06:36:42.514Z,38.53
2019-01-26T06:42:08.164Z,44.17
2019-01-26T06:44:36.445Z,47.10
2019-01-26T06:47:05.003Z,49.00
2019-01-26T06:49:33.288Z,54.73
2019-01-26T06:52:01.919Z,57.60
2019-01-26T06:54:31.061Z,54.07
2019-01-26T06:56:59.846Z,50.00
2019-01-26T06:59:28.163Z,57.10
2019-01-26T07:01:57.296Z,54.80
2019-01-26T07:07:22.218Z,54.87
2019-01-26T07:09:50.314Z,55.43
2019-01-26T07:15:25.770Z,60.70
2019-01-26T07:17:53.877Z,58.10
2019-01-26T07:20:21.834Z,58.17
2019-01-26T07:25:43.542Z,62.90
2019-01-26T07:28:11.538Z,63.83
2019-01-26T07:30:39.587Z,58.53
2019-01-26T07:38:56.262Z,58.50
2019-01-26T07:41:24.864Z,57.07
2019-01-26T07:43:52.799Z,54.60
2019-01-26T07:49:15.018Z,50.00
2019-01-26T07:51:42.949Z,50.83
2019-01-26T07:59:59.226Z,58.90
2019-01-26T08:11:25.689Z,48.97
2019-01-26T08:13:53.685Z,48.33
2019-01-26T08:16:21.674Z,45.80
2019-01-26T08:18:49.654Z,48.83
2019-01-26T08:21:17.662Z,49.77
2019-01-26T08:26:53.282Z,46.30
2019-01-26T08:29:21.256Z,44.73
2019-01-26T08:31:49.322Z,49.95
2019-01-26T08:37:10.911Z,49.67
2019-01-26T08:39:38.892Z,44.33
2019-01-26T08:45:01.120Z,45.15
2019-01-26T08:50:23.129Z,39.53
2019-01-26T08:52:51.121Z,32.33
2019-01-26T08:58:13.223Z,37.40
2019-01-26T09:00:41.259Z,40.43
2019-01-26T09:03:28.215Z,39.40
2019-01-26T09:08:50.767Z,33.30
2019-01-26T09:11:18.742Z,35.50
2019-01-26T09:13:46.684Z,35.43
2019-01-26T09:16:33.809Z,38.30
2019-01-26T09:19:01.755Z,38.50
2019-01-26T09:21:29.736Z,42.03
2019-01-26T09:23:57.712Z,36.93
2019-01-26T09:26:25.722Z,39.33
2019-01-26T09:28:53.733Z,39.60
2019-01-26T09:31:21.703Z,33.17
2019-01-26T09:33:49.710Z,30.83
2019-01-26T09:36:17.621Z,27.97
2019-01-26T09:38:45.701Z,27.10
2019-01-26T09:41:13.702Z,29.20
2019-01-26T09:46:35.666Z,61.67
2019-01-26T09:49:03.660Z,41.00
2019-01-26T09:51:31.677Z,58.37
2019-01-26T09:53:59.652Z,53.23
2019-01-26T09:56:27.660Z,35.13
2019-01-26T09:58:55.632Z,31.37
2019-01-26T10:01:23.638Z,31.97
2019-01-26T10:03:51.577Z,31.07
2019-01-26T10:06:19.593Z,26.93
2019-01-26T10:08:47.587Z,23.40
2019-01-26T10:11:15.584Z,19.20
2019-01-26T10:13:43.542Z,19.37
2019-01-26T10:16:11.638Z,18.57
2019-01-26T10:18:39.658Z,20.07
2019-01-26T10:21:07.666Z,19.37
2019-01-26T10:23:35.625Z,19.47
2019-01-26T10:26:03.654Z,17.47
2019-01-26T10:28:31.715Z,16.93
2019-01-26T10:33:49.156Z,17.37
2019-01-26T10:36:36.076Z,15.30
2019-01-26T10:42:17.056Z,17.30
2019-01-26T10:47:20.859Z,13.30
2019-01-26T10:49:49.427Z,15.40
2019-01-26T10:52:17.963Z,19.93
2019-01-26T10:54:46.657Z,16.40
2019-01-26T10:57:15.758Z,17.80
2019-01-26T10:59:44.477Z,15.67
2019-01-26T11:02:12.641Z,12.37
2019-01-26T11:04:41.343Z,13.97
2019-01-26T11:07:09.854Z,17.87
2019-01-26T11:09:38.896Z,12.67
2019-01-26T11:12:07.966Z,17.63
2019-01-26T11:14:37.253Z,15.13
2019-01-26T11:17:05.940Z,13.13
2019-01-26T11:19:35.211Z,13.17
2019-01-26T11:22:04.245Z,12.17
2019-01-26T11:24:33.624Z,13.87
2019-01-26T11:27:03.572Z,12.10
2019-01-26T11:29:32.797Z,13.63
2019-01-26T11:32:01.942Z,12.87
2019-01-26T11:34:30.249Z,10.97
2019-01-26T11:36:58.782Z,11.50
2019-01-26T11:39:27.294Z,12.40
2019-01-26T11:41:55.905Z,8.83
2019-01-26T11:44:24.621Z,10.90
2019-01-26T11:46:56.584Z,10.73
2019-01-26T11:49:25.178Z,9.10
2019-01-26T11:52:12.616Z,14.57
2019-01-26T11:55:00.148Z,11.83
2019-01-26T11:57:31.505Z,12.57
2019-01-26T12:00:18.777Z,10.63
2019-01-26T12:03:06.087Z,10.73
2019-01-26T12:05:53.398Z,8.90
2019-01-26T12:08:21.737Z,9.23
2019-01-26T12:10:49.894Z,10.60
2019-01-26T12:13:17.840Z,7.30
2019-01-26T12:15:46.264Z,8.57
2019-01-26T12:18:14.674Z,8.80
2019-01-26T12:20:42.641Z,8.60
2019-01-26T12:23:10.902Z,8.87
2019-01-26T12:25:39.318Z,9.73
2019-01-26T12:28:07.402Z,7.50
2019-01-26T12:30:35.864Z,7.77
2019-01-26T12:33:03.896Z,8.30
2019-01-26T12:35:32.686Z,8.53
2019-01-26T12:38:00.699Z,7.67
2019-01-26T12:40:29.186Z,6.97
2019-01-26T12:42:59.221Z,6.73
2019-01-26T12:45:28.374Z,9.37
2019-01-26T12:47:56.362Z,8.57
2019-01-26T12:50:24.535Z,9.50
2019-01-26T12:52:52.747Z,9.13
2019-01-26T12:57:57.391Z,7.80
2019-01-26T13:00:27.451Z,8.00
2019-01-26T13:02:55.737Z,7.53
2019-01-26T13:05:24.189Z,7.40
2019-01-26T13:07:52.194Z,7.67
2019-01-26T13:10:22.511Z,6.70
2019-01-26T13:12:50.862Z,6.37
2019-01-26T13:15:19.007Z,7.57
2019-01-26T13:17:46.970Z,6.60
2019-01-26T13:20:14.987Z,6.97
2019-01-26T13:22:43.874Z,7.07
2019-01-26T13:25:12.498Z,6.07
2019-01-26T13:27:41.644Z,7.27
2019-01-26T13:30:11.770Z,8.60
2019-01-26T13:32:39.741Z,6.50
2019-01-26T13:35:07.812Z,6.37
2019-01-26T13:37:36.272Z,5.67
2019-01-26T13:40:25.053Z,6.83
2019-01-26T13:43:00.482Z,6.60
2019-01-26T13:45:29.917Z,6.03
2019-01-26T13:47:59.982Z,7.63
2019-01-26T13:50:30.245Z,8.97
2019-01-26T13:53:04.472Z,8.70
2019-01-26T13:55:35.596Z,7.57
2019-01-26T13:58:04.381Z,8.40
2019-01-26T14:00:34.608Z,6.77
2019-01-26T14:03:03.470Z,7.40
2019-01-26T14:05:32.416Z,7.57
2019-01-26T14:08:02.703Z,7.57
2019-01-26T14:10:32.559Z,7.73
2019-01-26T14:13:06.772Z,9.50
2019-01-26T14:15:39.188Z,9.30
2019-01-26T14:18:07.162Z,7.37
2019-01-26T14:20:36.660Z,10.28
2019-01-26T14:23:04.631Z,11.20
2019-01-26T14:25:33.374Z,10.57
2019-01-26T14:28:01.371Z,11.63
2019-01-26T14:30:35.404Z,9.47
2019-01-26T14:33:12.097Z,13.25
2019-01-26T14:35:43.354Z,10.97
2019-01-26T14:38:12.496Z,11.90
2019-01-26T14:40:41.483Z,10.07
2019-01-26T14:43:10.395Z,10.53
2019-01-26T14:45:39.268Z,13.80
2019-01-26T14:48:08.138Z,8.73
2019-01-26T14:50:38.156Z,12.53
2019-01-26T14:53:08.829Z,16.43
2019-01-26T14:55:38.062Z,20.80
2019-01-26T14:58:07.143Z,17.70
2019-01-26T15:00:37.187Z,16.97
2019-01-26T15:03:05.990Z,12.50
2019-01-26T15:05:34.889Z,13.47
2019-01-26T15:08:03.898Z,15.03
2019-01-26T15:10:32.820Z,12.30
2019-01-26T15:13:01.819Z,16.80
2019-01-26T15:15:30.622Z,14.97
2019-01-26T15:17:59.490Z,12.77
2019-01-26T15:20:29.757Z,10.97
2019-01-26T15:22:58.460Z,15.47
2019-01-26T15:25:27.587Z,14.93
2019-01-26T15:27:56.332Z,13.30
2019-01-26T15:30:29.423Z,13.30
2019-01-26T15:32:58.333Z,15.53
2019-01-26T15:35:27.099Z,11.57
2019-01-26T15:37:59.131Z,11.87
2019-01-26T15:40:29.488Z,12.40
2019-01-26T15:42:58.572Z,15.43
2019-01-26T15:45:28.874Z,16.93
2019-01-26T15:47:57.816Z,16.43
2019-01-26T15:50:26.938Z,16.03
2019-01-26T15:52:55.986Z,12.70
2019-01-26T15:55:25.239Z,11.30
2019-01-26T15:57:54.273Z,17.97
2019-01-26T16:00:26.774Z,11.03
2019-01-26T16:02:55.879Z,14.23
2019-01-26T16:05:24.901Z,14.27
2019-01-26T16:07:54.127Z,11.97
2019-01-26T16:10:23.407Z,16.27
2019-01-26T16:12:52.583Z,15.77
2019-01-26T16:15:22.427Z,19.07
2019-01-26T16:17:51.529Z,23.17
2019-01-26T16:20:20.657Z,17.57
2019-01-26T16:22:48.642Z,16.82
2019-01-26T16:25:16.654Z,12.97
2019-01-26T16:27:44.632Z,14.37
2019-01-26T16:30:14.093Z,17.53
2019-01-26T16:32:42.047Z,13.87
2019-01-26T16:35:10.853Z,16.10
2019-01-26T16:37:38.820Z,17.93
2019-01-26T16:40:07.516Z,18.93
2019-01-26T16:42:35.599Z,19.00
2019-01-26T16:45:03.600Z,20.87
2019-01-26T16:47:31.554Z,17.63
2019-01-26T16:50:00.010Z,24.53
2019-01-26T16:52:28.853Z,25.45
2019-01-26T16:54:57.822Z,24.27
2019-01-26T16:57:25.802Z,19.97
2019-01-26T16:59:53.818Z,25.37
2019-01-26T17:02:21.781Z,25.63
2019-01-26T17:04:49.754Z,22.00
2019-01-26T17:07:17.787Z,29.27
2019-01-26T17:09:45.746Z,25.83
2019-01-26T17:12:13.705Z,24.10
2019-01-26T17:14:41.752Z,23.77
2019-01-26T17:17:09.744Z,25.70
2019-01-26T17:19:37.803Z,23.40
2019-01-26T17:22:05.754Z,28.30
2019-01-26T17:24:33.708Z,29.37
2019-01-26T17:27:01.705Z,29.23
2019-01-26T17:29:29.615Z,29.60
2019-01-26T17:31:57.565Z,23.50
2019-01-26T17:34:30.206Z,39.13
2019-01-26T17:36:55.189Z,41.00
2019-01-26T17:39:23.126Z,31.40
2019-01-26T17:41:51.139Z,33.93
2019-01-26T17:44:19.142Z,29.07
2019-01-26T17:46:47.142Z,33.63
2019-01-26T17:49:15.078Z,27.70
2019-01-26T17:51:43.081Z,26.77
2019-01-26T17:54:11.086Z,27.60
2019-01-26T17:56:39.086Z,32.27
2019-01-26T17:59:07.031Z,33.60
2019-01-26T18:01:35.014Z,26.73
2019-01-26T18:04:03.002Z,33.50
2019-01-26T18:06:30.960Z,28.67
2019-01-26T18:08:58.937Z,32.93
2019-01-26T18:11:26.957Z,37.13
2019-01-26T18:13:54.947Z,36.40
2019-01-26T18:16:22.900Z,43.33
2019-01-26T18:18:50.874Z,38.37
2019-01-26T18:21:18.862Z,35.83
2019-01-26T18:23:46.858Z,34.83
2019-01-26T18:26:14.837Z,34.70
2019-01-26T18:28:42.832Z,33.58
2019-01-26T18:31:11.942Z,30.67
2019-01-26T18:33:40.097Z,32.77
2019-01-26T18:36:08.690Z,33.33
2019-01-26T18:38:37.227Z,53.77
2019-01-26T18:41:05.209Z,37.37
2019-01-26T18:43:33.359Z,30.70
2019-01-26T18:46:01.541Z,34.27
2019-01-26T18:48:29.538Z,44.37
2019-01-26T18:50:57.989Z,38.13
2019-01-26T18:53:26.254Z,33.50
2019-01-26T18:55:54.183Z,39.87
2019-01-26T18:58:22.141Z,36.23
2019-01-26T19:00:50.622Z,33.37
2019-01-26T19:03:20.582Z,32.50
2019-01-26T19:05:48.594Z,32.58
2019-01-26T19:08:16.526Z,33.13
2019-01-26T19:10:44.498Z,28.73
2019-01-26T19:13:12.512Z,27.83
2019-01-26T19:15:40.572Z,28.73
2019-01-26T19:18:08.510Z,32.67
2019-01-26T19:20:36.515Z,34.05
2019-01-26T19:23:04.504Z,37.07
2019-01-26T19:25:32.482Z,33.53
2019-01-26T19:28:00.489Z,34.07
2019-01-26T19:30:28.467Z,45.97
2019-01-26T19:32:56.432Z,41.37
2019-01-26T19:35:24.403Z,41.97
2019-01-26T19:37:52.377Z,40.00
2019-01-26T19:40:20.527Z,36.90
2019-01-26T19:42:48.500Z,37.87
2019-01-26T19:45:17.600Z,38.43
2019-01-26T19:47:47.103Z,37.60
2019-01-26T19:50:20.437Z,38.03
2019-01-26T19:52:49.765Z,41.63
2019-01-26T19:55:19.426Z,40.33
2019-01-26T19:57:48.832Z,40.93
2019-01-26T20:00:16.870Z,40.87
2019-01-26T20:02:44.913Z,44.87
2019-01-26T20:05:13.510Z,42.13
2019-01-26T20:07:41.476Z,43.97
2019-01-26T20:10:09.647Z,41.83
2019-01-26T20:12:37.630Z,42.90
2019-01-26T20:15:07.271Z,37.57
2019-01-26T20:17:35.618Z,39.60
2019-01-26T20:20:04.115Z,33.23
2019-01-26T20:22:32.341Z,30.13
2019-01-26T20:25:00.365Z,31.63
2019-01-26T20:27:28.476Z,31.90
2019-01-26T20:29:56.895Z,27.17
2019-01-26T20:32:25.235Z,26.30
2019-01-26T20:34:53.570Z,25.65
2019-01-26T20:37:21.618Z,24.03
2019-01-26T20:39:49.598Z,21.50
2019-01-26T20:42:17.837Z,27.87
2019-01-26T20:44:46.670Z,24.70
2019-01-26T20:47:15.543Z,24.27
2019-01-26T20:49:44.584Z,26.97
2019-01-26T20:52:13.334Z,28.80
2019-01-26T20:54:42.000Z,29.07
2019-01-26T20:57:10.224Z,27.77
2019-01-26T20:59:39.853Z,30.27
2019-01-26T21:02:08.165Z,31.77
2019-01-26T21:04:36.957Z,31.20
2019-01-26T21:07:06.099Z,30.87
2019-01-26T21:09:34.958Z,32.57
2019-01-26T21:12:03.964Z,36.23
2019-01-26T21:14:32.541Z,36.00
2019-01-26T21:17:01.005Z,40.00
2019-01-26T21:19:29.117Z,36.53
2019-01-26T21:21:57.719Z,34.97
2019-01-26T21:24:26.774Z,37.37
2019-01-26T21:26:55.628Z,37.43
2019-01-26T21:29:23.913Z,44.53
2019-01-26T21:31:52.262Z,39.93
2019-01-26T21:34:20.745Z,36.90
2019-01-26T21:36:48.839Z,38.23
2019-01-26T21:39:17.697Z,30.67
2019-01-26T21:41:45.723Z,31.27
2019-01-26T21:44:13.786Z,34.80
2019-01-26T21:46:41.905Z,30.47
2019-01-26T21:49:10.270Z,31.53
2019-01-26T21:51:41.770Z,31.03
2019-01-26T21:54:11.102Z,29.93
2019-01-26T21:56:40.588Z,32.53
2019-01-26T21:59:09.522Z,32.47
2019-01-26T22:01:38.779Z,30.67
2019-01-26T22:04:07.774Z,32.67
2019-01-26T22:06:35.829Z,34.13
2019-01-26T22:09:06.345Z,31.97
2019-01-26T22:11:34.908Z,33.43
2019-01-26T22:14:02.961Z,36.60
2019-01-26T22:16:32.460Z,32.53
2019-01-26T22:19:00.842Z,29.40
2019-01-26T22:21:29.026Z,37.13
2019-01-26T22:23:57.147Z,30.67
2019-01-26T22:26:26.302Z,31.10
2019-01-26T22:28:54.358Z,31.87
2019-01-26T22:31:22.474Z,29.77
2019-01-26T22:33:51.206Z,35.63
2019-01-26T22:36:19.870Z,30.27
2019-01-26T22:38:48.005Z,32.40
2019-01-26T22:41:16.111Z,34.73
2019-01-26T22:43:44.099Z,31.10
2019-01-26T22:46:12.165Z,29.60
2019-01-26T22:48:41.226Z,33.73
2019-01-26T22:51:10.087Z,31.50
2019-01-26T22:53:40.759Z,30.13
2019-01-26T22:56:08.689Z,32.77
2019-01-26T22:58:37.122Z,32.17
2019-01-26T23:01:09.544Z,32.83
2019-01-26T23:03:44.093Z,33.13
2019-01-26T23:06:43.958Z,33.40
2019-01-26T23:09:24.668Z,34.03
2019-01-26T23:12:18.296Z,31.47
2019-01-26T23:15:06.431Z,35.17
2019-01-26T23:17:56.914Z,30.37
2019-01-26T23:20:42.462Z,31.97
2019-01-26T23:23:32.722Z,28.80
2019-01-26T23:26:22.968Z,29.57
2019-01-26T23:29:19.067Z,30.70
2019-01-26T23:31:47.013Z,29.43
2019-01-26T23:34:15.010Z,27.93
2019-01-26T23:36:43.001Z,29.70
2019-01-26T23:39:10.980Z,29.03
2019-01-26T23:41:38.976Z,26.83
2019-01-26T23:44:06.940Z,26.80
2019-01-26T23:46:34.917Z,26.77
2019-01-26T23:49:02.881Z,25.43
2019-01-26T23:51:31.049Z,24.37
2019-01-26T23:53:59.058Z,21.50
2019-01-26T23:56:27.054Z,21.37
2019-01-26T23:58:55.015Z,24.87
